Changde Airport


Codes: ZGCD/CGD
Name: Changde Airport
City: Changde
Country: China
Elevation: 128 ft.
Wikipedia:

Photos at Changde Airport


   Photos courtesy of SpottingLog. You can add your own sightings and photos by signing up for a free trial today.



No photos found.

Weather at Changde Airport


Time (UTC)DescriptionTempratureWindCloud coverageVisibilityPressureHumidity
23-May-2024 21:00Clear Sky23°C2 mph, SW0%10000m1007hPa83%
24-May-2024 00:00Clear Sky24°C2 mph, SW0%10000m1007hPa80%
24-May-2024 03:00Clear Sky28°C4 mph, SE0%10000m1008hPa65%
24-May-2024 06:00Clear Sky34°C7 mph, E0%10000m1006hPa46%
24-May-2024 09:00Clear Sky34°C7 mph, E0%10000m1005hPa47%
24-May-2024 12:00Clear Sky27°C9 mph, SE0%10000m1005hPa67%
24-May-2024 15:00Clear Sky26°C7 mph, SE0%10000m1007hPa71%
24-May-2024 18:00Clear Sky25°C0 mph, NW0%10000m1006hPa77%
24-May-2024 21:00Clear Sky24°C2 mph, S0%10000m1006hPa81%
25-May-2024 00:00Clear Sky27°C2 mph, SW0%10000m1007hPa71%
25-May-2024 03:00Clear Sky32°C4 mph, S0%10000m1007hPa54%
25-May-2024 06:00Clear Sky36°C4 mph, SE0%10000m1004hPa37%
25-May-2024 09:00Clear Sky36°C7 mph, E0%10000m1002hPa39%
25-May-2024 12:00Scattered Clouds30°C7 mph, SE33%10000m1003hPa61%
25-May-2024 15:00Broken Clouds28°C7 mph, S57%10000m1004hPa69%
25-May-2024 18:00Scattered Clouds26°C4 mph, SW39%10000m1003hPa72%
25-May-2024 21:00Overcast Clouds25°C7 mph, SW100%10000m1003hPa74%
26-May-2024 00:00Overcast Clouds29°C4 mph, SW94%10000m1004hPa66%
26-May-2024 03:00Overcast Clouds34°C2 mph, SW94%10000m1004hPa51%
26-May-2024 06:00Overcast Clouds35°C4 mph, NE97%10000m1001hPa49%
26-May-2024 09:00Very Heavy Rain24°C11 mph, NW100%3042m1001hPa99%
26-May-2024 12:00Heavy Intensity Rain23°C0 mph, E100%10000m1004hPa95%
26-May-2024 15:00Light Rain23°C2 mph, SW100%10000m1004hPa95%
26-May-2024 18:00Overcast Clouds23°C4 mph, SW100%10000m1003hPa95%
26-May-2024 21:00Light Rain23°C2 mph, SW87%10000m1002hPa92%
27-May-2024 00:00Broken Clouds25°C4 mph, NW81%10000m1004hPa82%
27-May-2024 03:00Light Rain30°C7 mph, N51%10000m1003hPa66%
27-May-2024 06:00Light Rain31°C11 mph, NE44%10000m1002hPa63%
27-May-2024 09:00Light Rain29°C13 mph, NE61%10000m1002hPa74%
27-May-2024 12:00Light Rain25°C11 mph, NE75%10000m1004hPa82%
27-May-2024 15:00Light Rain23°C4 mph, NE94%10000m1006hPa82%
27-May-2024 18:00Overcast Clouds22°C2 mph, N95%10000m1005hPa84%
27-May-2024 21:00Overcast Clouds21°C4 mph, NW91%10000m1006hPa89%
28-May-2024 00:00Overcast Clouds25°C9 mph, NE86%10000m1008hPa73%
28-May-2024 03:00Clear Sky29°C11 mph, NE6%10000m1007hPa54%
28-May-2024 06:00Few Clouds31°C11 mph, NE16%10000m1006hPa48%
28-May-2024 09:00Scattered Clouds30°C9 mph, NE41%10000m1004hPa55%
28-May-2024 12:00Broken Clouds24°C7 mph, E72%10000m1005hPa65%
28-May-2024 15:00Overcast Clouds22°C2 mph, E99%10000m1006hPa70%
28-May-2024 18:00Overcast Clouds22°C0 mph, E99%10000m1004hPa69%